Time;durP1;ratioP1;P1;durP2;ratioP2;P2;SDS_P1;SDS_P2;PMS_P1;PMS_P2;Temp;Humidity;BMP_temperature;BMP_pressure;BME280_temperature;BME280_humidity;BME280_pressure;Samples;Min_cycle;Max_cycle;Signal;HPM_P1;HPM_P2
2022/11/03 00:01:54;;;;;;;;;;;;;;;7.59;92.32;99631.18;1658751;86;20206;-79
2022/11/03 00:04:21;;;;;;;;;;;;;;;7.57;92.44;99625.13;1658680;85;20195;-87
2022/11/03 00:06:50;;;;;;;;;;;;;;;7.59;92.29;99628.11;1658664;85;20384;-85
2022/11/03 00:09:17;;;;;;;;;;;;;;;7.64;92.10;99625.40;1658772;85;20172;-87
2022/11/03 00:11:46;;;;;;;;;;;;;;;7.70;91.82;99621.35;1658616;85;20205;-86
2022/11/03 00:14:14;;;;;;;;;;;;;;;7.77;91.64;99616.39;1658492;86;20203;-86
2022/11/03 00:16:41;;;;;;;;;;;;;;;7.83;91.44;99613.22;1658745;85;20207;-85
2022/11/03 00:19:09;;;;;;;;;;;;;;;7.88;91.12;99616.60;1658530;86;21153;-85
2022/11/03 00:21:35;;;;;;;;;;;;;;;7.91;90.91;99618.70;1658416;86;20218;-85
2022/11/03 00:24:02;;;;;;;;;;;;;;;7.92;90.66;99622.20;1658841;86;20353;-85
2022/11/03 00:26:31;;;;;;;;;;;;;;;7.92;90.65;99620.89;1658495;85;20235;-85
2022/11/03 00:28:59;;;;;;;;;;;;;;;7.86;90.77;99624.95;1658679;86;20572;-86
2022/11/03 00:31:30;;;;;;;;;;;;;;;7.78;91.21;99622.05;1658548;86;21908;-83
2022/11/03 00:33:56;;;;;;;;;;;;;;;7.71;91.35;99626.13;1658984;86;20243;-81
2022/11/03 00:36:24;;;;;;;;;;;;;;;7.66;91.63;99629.30;1658731;86;20214;-83
2022/11/03 00:38:51;;;;;;;;;;;;;;;7.61;91.87;99634.63;1658621;85;20203;-84
2022/11/03 00:41:19;;;;;;;;;;;;;;;7.55;92.16;99632.16;1658480;85;20233;-82
2022/11/03 00:43:46;;;;;;;;;;;;;;;7.49;92.51;99630.50;1658870;85;21070;-85
2022/11/03 00:46:12;;;;;;;;;;;;;;;7.46;92.78;99629.70;1658445;85;20227;-83
2022/11/03 00:48:39;;;;;;;;;;;;;;;7.46;92.96;99630.55;1658548;86;20210;-83
2022/11/03 00:51:15;;;;;;;;;;;;;;;7.48;92.95;99622.67;1614487;86;20223;-86
2022/11/03 00:53:44;;;;;;;;;;;;;;;7.52;92.84;99617.81;1658689;86;20655;-83
2022/11/03 00:56:15;;;;;;;;;;;;;;;7.59;92.71;99607.62;1658772;86;21125;-84
2022/11/03 00:58:42;;;;;;;;;;;;;;;7.66;92.50;99612.28;1657979;85;20156;-82
2022/11/03 01:01:13;;;;;;;;;;;;;;;7.70;92.46;99609.56;1658786;86;20216;-82
2022/11/03 01:03:41;;;;;;;;;;;;;;;7.70;92.42;99608.26;1658646;85;20168;-85
2022/11/03 01:08:53;;;;;;;;;;;;;;;7.71;92.60;99606.49;1658497;85;21121;-85
2022/11/03 01:14:07;;;;;;;;;;;;;;;7.67;92.90;99604.39;1658646;86;20179;-85
2022/11/03 01:16:33;;;;;;;;;;;;;;;7.63;93.25;99607.95;1662216;85;20215;-86
2022/11/03 01:19:00;;;;;;;;;;;;;;;7.64;93.40;99611.00;1680803;85;20543;-85
2022/11/03 01:21:27;;;;;;;;;;;;;;;7.63;93.66;99611.45;1680752;84;20592;-86
2022/11/03 01:23:54;;;;;;;;;;;;;;;7.60;94.06;99615.44;1681829;84;20500;-84
2022/11/03 01:26:21;;;;;;;;;;;;;;;7.55;94.46;99618.60;1682496;84;20212;-83
2022/11/03 01:28:48;;;;;;;;;;;;;;;7.53;94.76;99619.52;1681496;84;20124;-84
2022/11/03 01:31:16;;;;;;;;;;;;;;;7.52;95.12;99619.12;1681311;84;20477;-84
2022/11/03 01:33:44;;;;;;;;;;;;;;;7.52;95.65;99612.57;1681224;84;20218;-86
2022/11/03 01:36:11;;;;;;;;;;;;;;;7.48;96.16;99612.20;1681047;85;20443;-86
2022/11/03 01:38:38;;;;;;;;;;;;;;;7.49;96.42;99625.72;1680752;85;20128;-85
2022/11/03 01:41:07;;;;;;;;;;;;;;;7.49;96.71;99621.80;1680752;84;20513;-82
2022/11/03 01:43:33;;;;;;;;;;;;;;;7.50;97.09;99618.27;1680787;85;20167;-86
2022/11/03 01:46:19;;;;;;;;;;;;;;;7.49;97.32;99616.56;1680761;85;21814;-78
2022/11/03 01:49:00;;;;;;;;;;;;;;;7.52;97.48;99625.66;1678203;85;20985;-85
2022/11/03 01:51:26;;;;;;;;;;;;;;;7.54;97.83;99618.63;1681166;84;20426;-86
2022/11/03 01:53:52;;;;;;;;;;;;;;;7.54;98.02;99619.94;1680758;84;20195;-84
2022/11/03 01:56:19;;;;;;;;;;;;;;;7.55;98.01;99607.28;1681106;85;20188;-79
2022/11/03 01:58:48;;;;;;;;;;;;;;;7.58;98.02;99616.35;1680904;85;21153;-85
2022/11/03 02:01:15;;;;;;;;;;;;;;;7.61;98.11;99614.98;1680659;85;20184;-83
2022/11/03 02:03:44;;;;;;;;;;;;;;;7.62;98.16;99613.64;1680714;85;20175;-82
2022/11/03 02:06:11;;;;;;;;;;;;;;;7.62;98.21;99619.34;1680963;85;20238;-86
2022/11/03 02:08:47;;;;;;;;;;;;;;;7.62;98.33;99612.80;1680998;84;20215;-86
2022/11/03 02:13:59;;;;;;;;;;;;;;;7.65;98.44;99619.28;1680816;85;20136;-84
2022/11/03 02:16:26;;;;;;;;;;;;;;;7.66;98.52;99613.59;1681099;85;20164;-85
2022/11/03 02:18:52;;;;;;;;;;;;;;;7.67;98.52;99596.53;1658477;85;20425;-86
2022/11/03 02:21:25;;;;;;;;;;;;;;;7.71;98.46;99592.94;1658486;86;20223;-86
2022/11/03 02:24:19;;;;;;;;;;;;;;;7.73;98.78;99595.10;1658451;85;21218;-84
2022/11/03 02:26:47;;;;;;;;;;;;;;;7.68;99.09;99596.93;1658416;85;20152;-85
2022/11/03 02:29:13;;;;;;;;;;;;;;;7.65;99.35;99600.95;1658785;86;20172;-83
2022/11/03 02:31:42;;;;;;;;;;;;;;;7.63;99.73;99606.22;1658631;85;20179;-86
2022/11/03 02:34:24;;;;;;;;;;;;;;;7.62;100.00;99611.48;1658779;85;20152;-85
2022/11/03 02:36:54;;;;;;;;;;;;;;;7.57;100.00;99603.72;1658515;86;21909;-85
2022/11/03 02:39:27;;;;;;;;;;;;;;;7.56;100.00;99602.44;1658638;85;20226;-83
2022/11/03 02:41:55;;;;;;;;;;;;;;;7.56;100.00;99603.29;1658587;86;20186;-85
2022/11/03 02:44:23;;;;;;;;;;;;;;;7.57;100.00;99597.63;1658532;85;20744;-86
2022/11/03 02:46:53;;;;;;;;;;;;;;;7.62;100.00;99604.94;1636188;86;20152;-84
2022/11/03 02:49:20;;;;;;;;;;;;;;;7.67;100.00;99600.47;1658646;86;21907;-86
2022/11/03 02:51:46;;;;;;;;;;;;;;;7.69;100.00;99593.43;1658593;86;20227;-85
2022/11/03 02:54:19;;;;;;;;;;;;;;;7.71;100.00;99591.63;1658452;86;20207;-83
2022/11/03 02:56:50;;;;;;;;;;;;;;;7.73;100.00;99593.80;1658512;85;20517;-81
2022/11/03 02:59:18;;;;;;;;;;;;;;;7.73;100.00;99593.80;1658544;86;20168;-86
2022/11/03 03:01:54;;;;;;;;;;;;;;;7.73;100.00;99585.94;1658721;86;20779;-87
2022/11/03 03:04:30;;;;;;;;;;;;;;;7.72;100.00;99587.28;1658543;85;20195;-87
2022/11/03 03:07:03;;;;;;;;;;;;;;;7.71;100.00;99585.08;1658420;86;20334;-86
2022/11/03 03:09:36;;;;;;;;;;;;;;;7.72;100.00;99586.81;1658708;86;20422;-86
2022/11/03 03:12:03;;;;;;;;;;;;;;;7.71;100.00;99583.77;1658588;85;20521;-86
2022/11/03 03:14:33;;;;;;;;;;;;;;;7.69;100.00;99577.72;1658753;85;21159;-85
2022/11/03 03:17:02;;;;;;;;;;;;;;;7.69;100.00;99581.64;1660469;85;20942;-86
2022/11/03 03:19:49;;;;;;;;;;;;;;;7.69;100.00;99582.95;1680684;84;20218;-86
2022/11/03 03:22:22;;;;;;;;;;;;;;;7.72;100.00;99574.19;1681255;84;20163;-83
2022/11/03 03:25:02;;;;;;;;;;;;;;;7.72;100.00;99573.72;1680985;85;20152;-82
2022/11/03 03:27:30;;;;;;;;;;;;;;;7.70;100.00;99571.59;1668342;84;21844;-84
2022/11/03 03:29:59;;;;;;;;;;;;;;;7.69;100.00;99573.78;1680878;84;20254;-84
2022/11/03 03:32:27;;;;;;;;;;;;;;;7.70;100.00;99572.91;1681178;85;20537;-85
2022/11/03 03:34:53;;;;;;;;;;;;;;;7.72;100.00;99571.56;1680958;84;21051;-83
2022/11/03 03:37:20;;;;;;;;;;;;;;;7.71;100.00;99568.52;1681140;85;20203;-85
2022/11/03 03:39:49;;;;;;;;;;;;;;;7.70;100.00;99566.36;1680974;84;21164;-85
2022/11/03 03:42:15;;;;;;;;;;;;;;;7.71;100.00;99562.82;1680167;85;20207;-85
2022/11/03 03:44:42;;;;;;;;;;;;;;;7.73;100.00;99558.86;1681134;84;21080;-84
2022/11/03 03:47:12;;;;;;;;;;;;;;;7.75;100.00;99559.68;1680946;85;20245;-84
2022/11/03 03:49:39;;;;;;;;;;;;;;;7.75;100.00;99563.19;1681081;85;20236;-85
2022/11/03 03:52:05;;;;;;;;;;;;;;;7.74;100.00;99568.00;1681101;85;21127;-84
2022/11/03 03:54:31;;;;;;;;;;;;;;;7.76;100.00;99564.03;1681118;85;20222;-83
2022/11/03 03:57:04;;;;;;;;;;;;;;;7.78;100.00;99560.50;1680976;84;20231;-85
2022/11/03 03:59:32;;;;;;;;;;;;;;;7.80;100.00;99562.63;1681394;85;20211;-84
2022/11/03 04:01:58;;;;;;;;;;;;;;;7.81;100.00;99557.78;1680957;84;20227;-83
2022/11/03 04:04:25;;;;;;;;;;;;;;;7.84;100.00;99544.23;1680993;84;21155;-84
2022/11/03 04:07:45;;;;;;;;;;;;;;;7.86;100.00;99541.97;1680861;85;20537;-85
2022/11/03 04:09:19;;;;;;;;;;;;;;;7.86;100.00;99541.97;1678072;85;20369;-84
2022/11/03 04:22:30;;;;;;;;;;;;;;;7.97;100.00;99541.73;1680798;84;20351;-85
2022/11/03 04:24:57;;;;;;;;;;;;;;;7.97;100.00;99536.50;1681038;85;20457;-84
2022/11/03 04:27:34;;;;;;;;;;;;;;;7.98;100.00;99534.27;1681043;84;20159;-84
2022/11/03 04:30:14;;;;;;;;;;;;;;;7.98;100.00;99535.58;1681029;85;21805;-84
2022/11/03 04:32:40;;;;;;;;;;;;;;;7.95;100.00;99531.30;1681112;84;20167;-83
2022/11/03 04:35:22;;;;;;;;;;;;;;;7.96;100.00;99541.31;1681197;85;20150;-84
2022/11/03 04:37:51;;;;;;;;;;;;;;;7.96;100.00;99537.39;1683705;84;20485;-78
2022/11/03 04:40:17;;;;;;;;;;;;;;;7.95;100.00;99533.03;1685209;84;20203;-78
2022/11/03 04:42:44;;;;;;;;;;;;;;;7.95;100.00;99533.03;1685722;85;21109;-79
2022/11/03 04:45:29;;;;;;;;;;;;;;;7.97;100.00;99532.57;1682115;85;20246;-83
2022/11/03 04:47:57;;;;;;;;;;;;;;;7.97;100.00;99538.66;1680525;84;20182;-83
2022/11/03 04:50:24;;;;;;;;;;;;;;;7.99;100.00;99532.08;1680796;85;20167;-84
2022/11/03 04:52:57;;;;;;;;;;;;;;;8.02;100.00;99532.02;1681492;84;20202;-84
2022/11/03 04:55:24;;;;;;;;;;;;;;;8.06;100.00;99536.27;1680883;84;21162;-84
2022/11/03 04:57:59;;;;;;;;;;;;;;;8.04;100.00;99530.20;1680518;85;20226;-85
2022/11/03 05:00:25;;;;;;;;;;;;;;;8.03;100.00;99533.71;1680630;85;20195;-84
2022/11/03 05:02:52;;;;;;;;;;;;;;;8.03;100.00;99533.71;1680920;85;20206;-85
2022/11/03 05:05:20;;;;;;;;;;;;;;;8.03;100.00;99535.02;1680727;84;20202;-85
2022/11/03 05:07:50;;;;;;;;;;;;;;;8.05;100.00;99536.30;1680810;84;21168;-85
2022/11/03 05:10:18;;;;;;;;;;;;;;;8.06;100.00;99534.11;1681104;85;20500;-84
2022/11/03 05:12:46;;;;;;;;;;;;;;;8.06;100.00;99531.48;1680847;85;20211;-85
2022/11/03 05:15:30;;;;;;;;;;;;;;;8.06;100.00;99538.89;1680862;85;20440;-84
2022/11/03 05:17:58;;;;;;;;;;;;;;;8.06;100.00;99541.51;1680785;84;20222;-84
2022/11/03 05:20:30;;;;;;;;;;;;;;;8.06;100.00;99544.13;1680924;85;21127;-85
2022/11/03 05:22:57;;;;;;;;;;;;;;;8.07;100.00;99538.42;1679505;85;20470;-86
2022/11/03 05:25:33;;;;;;;;;;;;;;;8.06;100.00;99544.13;1680681;84;21013;-85
2022/11/03 05:27:59;;;;;;;;;;;;;;;8.11;100.00;99550.58;1680822;84;20231;-85
2022/11/03 05:30:25;;;;;;;;;;;;;;;8.14;100.00;99544.81;1681135;84;20211;-84
2022/11/03 05:32:51;;;;;;;;;;;;;;;8.18;100.00;99554.30;1680882;85;21150;-83
2022/11/03 05:35:20;;;;;;;;;;;;;;;8.21;100.00;99547.30;1680784;85;20964;-83
2022/11/03 05:37:46;;;;;;;;;;;;;;;8.24;100.00;99549.81;1681105;85;20492;-86
2022/11/03 05:40:21;;;;;;;;;;;;;;;8.27;100.00;99548.00;1680982;84;20935;-78
2022/11/03 05:42:51;;;;;;;;;;;;;;;8.30;100.00;99552.29;1681100;84;20513;-85
2022/11/03 05:45:20;;;;;;;;;;;;;;;8.34;100.00;99547.40;1680268;85;21149;-82
2022/11/03 05:47:46;;;;;;;;;;;;;;;8.38;100.00;99550.34;1681116;84;20151;-83
2022/11/03 05:50:18;;;;;;;;;;;;;;;8.41;100.00;99552.89;1680878;85;20658;-82
2022/11/03 05:52:47;;;;;;;;;;;;;;;8.43;100.00;99556.36;1680895;84;20140;-84
2022/11/03 05:55:31;;;;;;;;;;;;;;;8.46;100.00;99558.06;1680883;85;20202;-78
2022/11/03 05:57:59;;;;;;;;;;;;;;;8.47;100.00;99560.65;1680925;84;21160;-82
2022/11/03 06:00:31;;;;;;;;;;;;;;;8.49;100.00;99560.58;1680660;84;21042;-82
2022/11/03 06:02:57;;;;;;;;;;;;;;;8.52;100.00;99564.02;1681096;84;20251;-85
2022/11/03 06:05:24;;;;;;;;;;;;;;;8.53;100.00;99565.72;1680817;85;20219;-85
2022/11/03 06:07:53;;;;;;;;;;;;;;;8.57;100.00;99561.70;1680934;85;20223;-85
2022/11/03 06:10:28;;;;;;;;;;;;;;;8.59;100.00;99562.52;1681004;85;22321;-84
2022/11/03 06:12:56;;;;;;;;;;;;;;;8.61;100.00;99560.71;1680662;85;20144;-85
2022/11/03 06:15:28;;;;;;;;;;;;;;;8.63;100.00;99561.56;1680797;84;20148;-82
2022/11/03 06:17:55;;;;;;;;;;;;;;;8.67;100.00;99564.50;1679269;84;20634;-85
2022/11/03 06:20:23;;;;;;;;;;;;;;;8.69;100.00;99569.25;1658527;86;20195;-85
2022/11/03 06:25:42;;;;;;;;;;;;;;;8.74;100.00;99572.61;1623382;86;20179;-84
2022/11/03 06:28:15;;;;;;;;;;;;;;;8.75;100.00;99570.41;1658456;86;20630;-84
2022/11/03 06:30:43;;;;;;;;;;;;;;;8.76;100.00;99574.77;1658213;86;20215;-84
2022/11/03 06:33:31;;;;;;;;;;;;;;;8.78;100.00;99573.42;1658619;85;20219;-85
2022/11/03 06:36:00;;;;;;;;;;;;;;;8.78;100.00;99576.89;1658820;85;22151;-83
2022/11/03 06:38:28;;;;;;;;;;;;;;;8.78;100.00;99570.34;1658301;86;20171;-85
2022/11/03 06:40:55;;;;;;;;;;;;;;;8.79;100.00;99570.73;1658908;86;20199;-82
2022/11/03 06:43:27;;;;;;;;;;;;;;;8.79;100.00;99561.55;1658315;85;20164;-84
2022/11/03 06:45:56;;;;;;;;;;;;;;;8.81;100.00;99554.52;1658592;86;20253;-81
2022/11/03 06:48:27;;;;;;;;;;;;;;;8.87;100.00;99559.58;1658403;86;21272;-80
2022/11/03 06:50:54;;;;;;;;;;;;;;;8.93;100.00;99559.42;1658401;86;20206;-86
2022/11/03 06:53:26;;;;;;;;;;;;;;;8.97;100.00;99559.34;1658389;85;20254;-84
2022/11/03 06:55:53;;;;;;;;;;;;;;;8.98;100.00;99555.80;1658685;86;20634;-85
2022/11/03 06:58:27;;;;;;;;;;;;;;;9.00;100.00;99557.95;1658396;86;20263;-84
2022/11/03 07:00:55;;;;;;;;;;;;;;;9.01;100.00;99547.84;1656254;86;21173;-81
2022/11/03 07:03:36;;;;;;;;;;;;;;;9.04;100.00;99551.70;1658254;86;20226;-82
2022/11/03 07:06:19;;;;;;;;;;;;;;;9.06;100.00;99548.15;1658469;86;20446;-86
2022/11/03 07:08:50;;;;;;;;;;;;;;;9.08;100.00;99552.05;1658616;86;20223;-81
2022/11/03 07:11:20;;;;;;;;;;;;;;;9.11;100.00;99556.75;1658480;85;20210;-86
2022/11/03 07:13:48;;;;;;;;;;;;;;;9.14;100.00;99555.79;1658532;86;21840;-83
2022/11/03 07:16:20;;;;;;;;;;;;;;;9.15;100.00;99564.09;1658587;85;20286;-83
2022/11/03 07:18:46;;;;;;;;;;;;;;;9.15;100.00;99564.09;1664965;85;20441;-84
2022/11/03 07:21:40;;;;;;;;;;;;;;;9.17;100.00;99562.27;1680852;84;20355;-82
2022/11/03 07:24:21;;;;;;;;;;;;;;;9.19;100.00;99565.70;1681136;85;20812;-82
2022/11/03 07:26:50;;;;;;;;;;;;;;;9.21;100.00;99571.80;1680757;85;21185;-85
2022/11/03 07:29:20;;;;;;;;;;;;;;;9.23;100.00;99566.48;1680945;85;20183;-86
2022/11/03 07:31:47;;;;;;;;;;;;;;;9.25;100.00;99566.86;1680694;84;20674;-85
2022/11/03 07:34:16;;;;;;;;;;;;;;;9.28;100.00;99568.09;1680629;85;20223;-85
2022/11/03 07:36:43;;;;;;;;;;;;;;;9.30;100.00;99573.30;1680916;84;20223;-85
2022/11/03 07:39:12;;;;;;;;;;;;;;;9.33;100.00;99572.33;1681042;85;21127;-86
2022/11/03 07:41:40;;;;;;;;;;;;;;;9.36;100.00;99573.56;1680923;84;20996;-82
2022/11/03 07:44:19;;;;;;;;;;;;;;;9.39;100.00;99575.64;1680942;84;20194;-86
2022/11/03 07:46:46;;;;;;;;;;;;;;;9.43;100.00;99573.78;1680838;84;20172;-81
2022/11/03 07:49:22;;;;;;;;;;;;;;;9.45;100.00;99567.59;1681160;85;20266;-84
2022/11/03 07:51:49;;;;;;;;;;;;;;;9.49;100.00;99564.42;1678253;85;21171;-84
2022/11/03 07:54:28;;;;;;;;;;;;;;;9.53;100.00;99547.69;1680917;85;20132;-87
2022/11/03 07:56:56;;;;;;;;;;;;;;;9.59;100.00;99552.73;1673038;85;20591;-84
2022/11/03 07:59:32;;;;;;;;;;;;;;;9.64;100.00;99544.26;1681022;85;20674;-84
2022/11/03 08:01:58;;;;;;;;;;;;;;;9.70;100.00;99537.09;1681047;84;20659;-82
2022/11/03 08:04:26;;;;;;;;;;;;;;;9.77;100.00;99543.91;1681163;84;21166;-87
2022/11/03 08:06:52;;;;;;;;;;;;;;;9.80;100.00;99542.47;1681002;84;20194;-85
2022/11/03 08:09:19;;;;;;;;;;;;;;;9.82;100.00;99549.88;1681114;85;20218;-86
2022/11/03 08:11:47;;;;;;;;;;;;;;;9.82;100.00;99545.94;1680893;84;20206;-84
2022/11/03 08:14:14;;;;;;;;;;;;;;;9.81;100.00;99533.23;1680914;84;20203;-86
2022/11/03 08:16:41;;;;;;;;;;;;;;;9.82;100.00;99535.42;1680809;85;21109;-86
2022/11/03 08:19:08;;;;;;;;;;;;;;;9.82;100.00;99548.10;1674016;85;20210;-87
2022/11/03 08:21:35;;;;;;;;;;;;;;;9.84;100.00;99540.17;1658635;85;20242;-85
2022/11/03 08:24:01;;;;;;;;;;;;;;;9.86;100.00;99541.83;1658627;86;20190;-84
2022/11/03 08:26:28;;;;;;;;;;;;;;;9.90;100.00;99540.42;1658519;86;20206;-84
2022/11/03 08:28:55;;;;;;;;;;;;;;;9.93;100.00;99537.24;1658713;86;21162;-82
2022/11/03 08:31:23;;;;;;;;;;;;;;;9.95;100.00;99535.45;1658615;85;20199;-85
2022/11/03 08:33:49;;;;;;;;;;;;;;;9.98;100.00;99534.01;1658657;86;20210;-84
2022/11/03 08:36:16;;;;;;;;;;;;;;;10.00;100.00;99536.16;1658646;86;20351;-85
2022/11/03 08:38:43;;;;;;;;;;;;;;;10.02;100.00;99526.45;1658537;86;20327;-84
2022/11/03 08:41:10;;;;;;;;;;;;;;;10.04;100.00;99528.56;1658463;86;21097;-85
2022/11/03 08:43:37;;;;;;;;;;;;;;;10.07;100.00;99522.80;1658385;85;20206;-85
2022/11/03 08:46:03;;;;;;;;;;;;;;;10.10;100.00;99529.27;1658575;85;20672;-85
2022/11/03 08:48:30;;;;;;;;;;;;;;;10.11;100.00;99527.06;1658516;86;20215;-84
2022/11/03 08:50:56;;;;;;;;;;;;;;;10.10;100.00;99520.92;1658775;86;20457;-83
2022/11/03 08:53:23;;;;;;;;;;;;;;;10.09;100.00;99518.38;1658432;85;21238;-85
2022/11/03 08:55:49;;;;;;;;;;;;;;;10.09;100.00;99523.63;1658714;85;20238;-85
2022/11/03 08:58:16;;;;;;;;;;;;;;;10.07;100.00;99510.97;1658578;86;20213;-82
2022/11/03 09:00:43;;;;;;;;;;;;;;;10.06;100.00;99513.21;1658494;86;20227;-85
2022/11/03 09:03:09;;;;;;;;;;;;;;;10.08;100.00;99514.86;1658636;85;20343;-85
2022/11/03 09:05:35;;;;;;;;;;;;;;;10.07;100.00;99510.97;1658440;86;21100;-82
2022/11/03 09:08:03;;;;;;;;;;;;;;;10.07;100.00;99501.77;1658458;86;20211;-85
2022/11/03 09:10:30;;;;;;;;;;;;;;;10.07;100.00;99503.97;1658521;86;20151;-85
2022/11/03 09:12:57;;;;;;;;;;;;;;;10.11;100.00;99509.98;1658624;85;20195;-84
2022/11/03 09:15:24;;;;;;;;;;;;;;;10.16;100.00;99517.26;1636623;86;20151;-83
2022/11/03 09:17:51;;;;;;;;;;;;;;;10.20;100.00;99514.91;1658571;85;22011;-84
2022/11/03 09:20:18;;;;;;;;;;;;;;;10.28;100.00;99508.95;1658454;86;20137;-83
2022/11/03 09:22:44;;;;;;;;;;;;;;;10.33;100.00;99504.42;1658544;86;20177;-82
2022/11/03 09:25:11;;;;;;;;;;;;;;;10.36;100.00;99506.95;1658574;86;21586;-83
2022/11/03 09:27:37;;;;;;;;;;;;;;;10.36;100.00;99506.95;1658296;85;20537;-84
2022/11/03 09:30:04;;;;;;;;;;;;;;;10.36;100.00;99512.22;1658798;86;21717;-82
2022/11/03 09:32:31;;;;;;;;;;;;;;;10.34;100.00;99512.73;1658322;86;20179;-83
2022/11/03 09:34:57;;;;;;;;;;;;;;;10.29;100.00;99511.11;1658464;85;20453;-82
2022/11/03 09:37:24;;;;;;;;;;;;;;;10.24;100.00;99506.03;1658473;86;20469;-85
2022/11/03 09:39:50;;;;;;;;;;;;;;;10.21;100.00;99503.50;1658386;85;20267;-85
2022/11/03 09:42:16;;;;;;;;;;;;;;;10.19;100.00;99511.91;1658573;86;21552;-84
2022/11/03 09:44:45;;;;;;;;;;;;;;;10.16;100.00;99505.42;1658877;86;20194;-84
2022/11/03 09:47:18;;;;;;;;;;;;;;;10.11;100.00;99509.98;1662464;85;20226;-83
2022/11/03 09:49:44;;;;;;;;;;;;;;;10.06;100.00;99506.64;1661028;86;20185;-79
2022/11/03 09:52:11;;;;;;;;;;;;;;;10.02;100.00;99506.73;1660240;85;20140;-84
2022/11/03 09:54:37;;;;;;;;;;;;;;;10.00;100.00;99501.98;1658725;85;21124;-86
2022/11/03 09:57:11;;;;;;;;;;;;;;;9.98;100.00;99502.47;1658594;85;20132;-84
2022/11/03 09:59:39;;;;;;;;;;;;;;;9.97;100.00;99500.77;1658561;85;20430;-85
2022/11/03 10:02:16;;;;;;;;;;;;;;;9.96;100.00;99498.19;1658626;85;20438;-85
2022/11/03 10:04:43;;;;;;;;;;;;;;;9.96;100.00;99496.88;1651562;86;20224;-86
2022/11/03 10:07:10;;;;;;;;;;;;;;;9.95;100.00;99499.97;1658478;86;21814;-84
2022/11/03 10:09:40;;;;;;;;;;;;;;;9.95;100.00;99498.65;1658308;85;20191;-87
2022/11/03 10:12:08;;;;;;;;;;;;;;;9.95;100.00;99502.59;1658487;86;20203;-85
2022/11/03 10:14:34;;;;;;;;;;;;;;;9.96;100.00;99497.72;1658465;86;20218;-86
2022/11/03 10:17:00;;;;;;;;;;;;;;;9.97;100.00;99495.51;1658809;86;20250;-84
2022/11/03 10:19:27;;;;;;;;;;;;;;;9.96;100.00;99502.98;1661553;85;21099;-85
2022/11/03 10:21:53;;;;;;;;;;;;;;;9.92;100.00;99502.69;1680737;84;20155;-85
2022/11/03 10:24:19;;;;;;;;;;;;;;;9.91;100.00;99504.89;1680744;84;20227;-83
2022/11/03 10:26:51;;;;;;;;;;;;;;;9.87;100.00;99511.17;1680918;85;20207;-86
2022/11/03 10:29:22;;;;;;;;;;;;;;;9.85;100.00;99516.48;1681016;85;20160;-86
2022/11/03 10:31:51;;;;;;;;;;;;;;;9.83;100.00;99513.47;1680806;85;21564;-85
2022/11/03 10:34:35;;;;;;;;;;;;;;;9.81;100.00;99507.41;1681117;85;20223;-82
2022/11/03 10:37:24;;;;;;;;;;;;;;;9.79;100.00;99514.03;1660811;85;20183;-82
2022/11/03 10:39:52;;;;;;;;;;;;;;;9.74;100.00;99515.09;1680977;85;20494;-83
2022/11/03 10:42:24;;;;;;;;;;;;;;;9.63;100.00;99509.72;1680866;85;20498;-81
2022/11/03 10:44:52;;;;;;;;;;;;;;;9.57;100.00;99523.03;1680971;85;22404;-81
2022/11/03 10:47:27;;;;;;;;;;;;;;;9.53;100.00;99522.73;1680776;85;20144;-85
2022/11/03 10:49:54;;;;;;;;;;;;;;;9.47;100.00;99515.03;1680561;85;20262;-83
2022/11/03 10:52:25;;;;;;;;;;;;;;;9.41;100.00;99521.30;1680788;85;20631;-82
2022/11/03 10:54:53;;;;;;;;;;;;;;;9.35;100.00;99525.91;1680821;85;20188;-85
2022/11/03 10:57:19;;;;;;;;;;;;;;;9.28;100.00;99535.27;1680797;85;21129;-85
2022/11/03 10:59:47;;;;;;;;;;;;;;;9.19;100.00;99538.14;1680540;84;20176;-83
2022/11/03 11:02:26;;;;;;;;;;;;;;;9.12;100.00;99539.23;1681135;85;20509;-83
2022/11/03 11:04:56;;;;;;;;;;;;;;;9.05;100.00;99539.00;1680044;85;20223;-83
2022/11/03 11:07:26;;;;;;;;;;;;;;;8.93;100.00;99538.43;1680591;84;20180;-86
2022/11/03 11:09:53;;;;;;;;;;;;;;;8.81;100.00;99525.66;1680777;84;21823;-79
2022/11/03 11:12:24;;;;;;;;;;;;;;;8.72;100.00;99528.52;1681044;85;20458;-82
2022/11/03 11:14:53;;;;;;;;;;;;;;;8.64;100.00;99529.16;1680790;84;20175;-82
2022/11/03 11:17:44;;;;;;;;;;;;;;;8.58;100.00;99528.03;1680944;85;20732;-83
2022/11/03 11:20:21;;;;;;;;;;;;;;;8.55;100.00;99527.19;1673902;84;20485;-83
2022/11/03 11:22:48;;;;;;;;;;;;;;;8.57;100.00;99527.61;1658453;86;20643;-85
2022/11/03 11:25:16;;;;;;;;;;;;;;;8.56;100.00;99517.59;1658547;86;20203;-83
2022/11/03 11:27:48;;;;;;;;;;;;;;;8.56;100.00;99513.66;1658732;86;20337;-86
2022/11/03 11:30:21;;;;;;;;;;;;;;;8.58;100.00;99518.86;1658118;86;20203;-83
2022/11/03 11:32:50;;;;;;;;;;;;;;;8.58;100.00;99521.02;1658739;85;20222;-79
2022/11/03 11:35:29;;;;;;;;;;;;;;;8.57;100.00;99526.30;1658707;85;21106;-81
2022/11/03 11:37:55;;;;;;;;;;;;;;;8.57;100.00;99527.16;1658786;86;20191;-83
2022/11/03 11:40:28;;;;;;;;;;;;;;;8.57;100.00;99523.69;1658800;86;20228;-83
2022/11/03 11:43:05;;;;;;;;;;;;;;;8.55;100.00;99514.08;1658510;85;20463;-83
2022/11/03 11:46:09;;;;;;;;;;;;;;;8.56;100.00;99513.66;1658546;85;20203;-86
2022/11/03 11:48:36;;;;;;;;;;;;;;;8.55;100.00;99514.54;1658643;86;21162;-85
2022/11/03 11:51:05;;;;;;;;;;;;;;;8.57;100.00;99504.86;1658567;86;20238;-84
2022/11/03 11:53:35;;;;;;;;;;;;;;;8.58;100.00;99514.47;1658861;86;20214;-85
2022/11/03 11:56:01;;;;;;;;;;;;;;;8.60;100.00;99517.91;1658768;86;20774;-80
2022/11/03 11:58:42;;;;;;;;;;;;;;;8.60;100.00;99510.49;1658771;86;20214;-81
2022/11/03 12:01:27;;;;;;;;;;;;;;;8.60;100.00;99513.97;1658681;85;20206;-86
2022/11/03 12:04:07;;;;;;;;;;;;;;;8.61;100.00;99513.51;1658917;85;20606;-84
2022/11/03 12:06:39;;;;;;;;;;;;;;;8.63;100.00;99510.41;1658766;85;20175;-86
2022/11/03 12:09:08;;;;;;;;;;;;;;;8.66;100.00;99505.95;1658787;86;20224;-85
2022/11/03 12:11:49;;;;;;;;;;;;;;;8.70;100.00;99506.72;1658651;85;20229;-87
2022/11/03 12:14:32;;;;;;;;;;;;;;;8.72;100.00;99507.53;1658453;86;20847;-82
2022/11/03 12:17:19;;;;;;;;;;;;;;;8.74;100.00;99509.66;1658417;85;20222;-86
2022/11/03 12:19:52;;;;;;;;;;;;;;;8.76;100.00;99514.43;1658488;86;20156;-83
2022/11/03 12:22:27;;;;;;;;;;;;;;;8.79;100.00;99509.53;1658790;86;20702;-87
2022/11/03 12:24:59;;;;;;;;;;;;;;;8.80;100.00;99500.31;1658897;86;20275;-88
2022/11/03 12:27:29;;;;;;;;;;;;;;;8.83;100.00;99500.23;1658877;85;21789;-86
2022/11/03 12:30:02;;;;;;;;;;;;;;;8.86;100.00;99502.78;1658603;85;20330;-86
2022/11/03 12:32:29;;;;;;;;;;;;;;;8.89;100.00;99502.70;1658902;86;20131;-85
2022/11/03 12:34:55;;;;;;;;;;;;;;;8.91;100.00;99496.95;1650410;86;20654;-85
2022/11/03 12:37:22;;;;;;;;;;;;;;;8.93;100.00;99504.78;1658854;86;20475;-85
2022/11/03 12:39:48;;;;;;;;;;;;;;;8.95;100.00;99500.80;1658863;85;21245;-83
2022/11/03 12:42:15;;;;;;;;;;;;;;;8.97;100.00;99507.72;1659020;85;20262;-84
2022/11/03 12:44:41;;;;;;;;;;;;;;;8.97;100.00;99506.86;1658761;85;20203;-85
2022/11/03 12:47:07;;;;;;;;;;;;;;;8.96;100.00;99507.75;1659137;86;20227;-85
2022/11/03 12:49:35;;;;;;;;;;;;;;;8.97;100.00;99509.02;1658706;86;20199;-84
2022/11/03 12:52:05;;;;;;;;;;;;;;;8.98;100.00;99504.63;1658831;86;21210;-83
2022/11/03 12:54:31;;;;;;;;;;;;;;;9.00;100.00;99510.25;1658768;86;20206;-86
2022/11/03 12:56:57;;;;;;;;;;;;;;;9.03;100.00;99509.32;1659214;84;20335;-86
2022/11/03 12:59:23;;;;;;;;;;;;;;;9.04;100.00;99509.25;1658844;85;20793;-85
2022/11/03 13:01:50;;;;;;;;;;;;;;;9.05;100.00;99511.45;1658757;86;20210;-86
2022/11/03 13:04:16;;;;;;;;;;;;;;;9.06;100.00;99510.52;1658813;84;21171;-85
2022/11/03 13:06:43;;;;;;;;;;;;;;;9.06;100.00;99507.47;1658798;84;20202;-84
2022/11/03 13:09:11;;;;;;;;;;;;;;;9.06;100.00;99510.52;1658860;85;20257;-86
2022/11/03 13:14:25;;;;;;;;;;;;;;;9.08;100.00;99506.11;1659067;85;20214;-85
2022/11/03 13:16:52;;;;;;;;;;;;;;;9.10;100.00;99510.86;1658654;86;21164;-85
2022/11/03 13:19:18;;;;;;;;;;;;;;;9.11;100.00;99508.19;1658918;86;20191;-86
2022/11/03 13:21:45;;;;;;;;;;;;;;;9.14;100.00;99507.23;1659964;85;20194;-85
2022/11/03 13:24:11;;;;;;;;;;;;;;;9.20;100.00;99504.44;1660640;86;20167;-83
2022/11/03 13:26:38;;;;;;;;;;;;;;;9.25;100.00;99509.56;1660882;86;20187;-84